sensor_id;sensor_type;location;lat;lon;timestamp;P1;durP1;ratioP1;P2;durP2;ratioP2
19127;SDS011;9696;53.686;10.094;2023-02-23T00:01:25;18.03;;;8.47;;
19127;SDS011;9696;53.686;10.094;2023-02-23T00:03:55;18.30;;;8.70;;
19127;SDS011;9696;53.686;10.094;2023-02-23T00:06:28;16.53;;;8.17;;
19127;SDS011;9696;53.686;10.094;2023-02-23T00:08:58;17.70;;;8.40;;
19127;SDS011;9696;53.686;10.094;2023-02-23T00:11:28;19.37;;;8.07;;
19127;SDS011;9696;53.686;10.094;2023-02-23T00:13:59;17.17;;;8.73;;
19127;SDS011;9696;53.686;10.094;2023-02-23T00:16:29;18.43;;;8.73;;
19127;SDS011;9696;53.686;10.094;2023-02-23T00:18:58;25.23;;;9.13;;
19127;SDS011;9696;53.686;10.094;2023-02-23T00:21:29;20.13;;;9.50;;
19127;SDS011;9696;53.686;10.094;2023-02-23T00:24:01;18.00;;;9.33;;
19127;SDS011;9696;53.686;10.094;2023-02-23T00:26:32;17.47;;;9.03;;
19127;SDS011;9696;53.686;10.094;2023-02-23T00:29:05;22.67;;;9.93;;
19127;SDS011;9696;53.686;10.094;2023-02-23T00:31:36;17.63;;;8.43;;
19127;SDS011;9696;53.686;10.094;2023-02-23T00:34:05;16.87;;;8.43;;
19127;SDS011;9696;53.686;10.094;2023-02-23T00:36:36;21.97;;;9.27;;
19127;SDS011;9696;53.686;10.094;2023-02-23T00:39:06;23.63;;;9.63;;
19127;SDS011;9696;53.686;10.094;2023-02-23T00:41:44;21.07;;;9.00;;
19127;SDS011;9696;53.686;10.094;2023-02-23T00:44:14;27.90;;;9.90;;
19127;SDS011;9696;53.686;10.094;2023-02-23T00:46:44;22.27;;;8.77;;
19127;SDS011;9696;53.686;10.094;2023-02-23T00:49:15;24.50;;;9.33;;
19127;SDS011;9696;53.686;10.094;2023-02-23T00:51:46;22.37;;;9.23;;
19127;SDS011;9696;53.686;10.094;2023-02-23T00:54:15;20.70;;;9.13;;
19127;SDS011;9696;53.686;10.094;2023-02-23T00:56:45;21.67;;;9.77;;
19127;SDS011;9696;53.686;10.094;2023-02-23T00:59:15;24.43;;;9.93;;
19127;SDS011;9696;53.686;10.094;2023-02-23T01:01:45;29.43;;;10.60;;
19127;SDS011;9696;53.686;10.094;2023-02-23T01:04:19;28.47;;;10.37;;
19127;SDS011;9696;53.686;10.094;2023-02-23T01:06:51;22.50;;;10.63;;
19127;SDS011;9696;53.686;10.094;2023-02-23T01:09:20;20.77;;;10.03;;
19127;SDS011;9696;53.686;10.094;2023-02-23T01:11:54;21.37;;;9.37;;
19127;SDS011;9696;53.686;10.094;2023-02-23T01:14:27;26.60;;;9.77;;
19127;SDS011;9696;53.686;10.094;2023-02-23T01:16:57;21.27;;;9.77;;
19127;SDS011;9696;53.686;10.094;2023-02-23T01:19:26;23.30;;;9.20;;
19127;SDS011;9696;53.686;10.094;2023-02-23T01:22:02;24.87;;;11.13;;
19127;SDS011;9696;53.686;10.094;2023-02-23T01:24:31;26.77;;;10.33;;
19127;SDS011;9696;53.686;10.094;2023-02-23T01:27:03;24.33;;;9.77;;
19127;SDS011;9696;53.686;10.094;2023-02-23T01:29:33;21.83;;;9.60;;
19127;SDS011;9696;53.686;10.094;2023-02-23T01:32:02;25.00;;;9.77;;
19127;SDS011;9696;53.686;10.094;2023-02-23T01:34:31;26.80;;;10.70;;
19127;SDS011;9696;53.686;10.094;2023-02-23T01:37:02;21.50;;;9.37;;
19127;SDS011;9696;53.686;10.094;2023-02-23T01:39:31;21.77;;;9.10;;
19127;SDS011;9696;53.686;10.094;2023-02-23T01:42:02;20.67;;;10.23;;
19127;SDS011;9696;53.686;10.094;2023-02-23T01:47:44;21.07;;;9.70;;
19127;SDS011;9696;53.686;10.094;2023-02-23T01:50:15;19.37;;;9.40;;
19127;SDS011;9696;53.686;10.094;2023-02-23T01:52:47;22.77;;;10.93;;
19127;SDS011;9696;53.686;10.094;2023-02-23T01:55:18;32.63;;;11.87;;
19127;SDS011;9696;53.686;10.094;2023-02-23T01:57:52;22.33;;;9.53;;
19127;SDS011;9696;53.686;10.094;2023-02-23T02:00:28;25.10;;;9.87;;
19127;SDS011;9696;53.686;10.094;2023-02-23T02:03:03;22.30;;;10.83;;
19127;SDS011;9696;53.686;10.094;2023-02-23T02:05:37;32.53;;;11.73;;
19127;SDS011;9696;53.686;10.094;2023-02-23T02:08:09;26.77;;;10.20;;
19127;SDS011;9696;53.686;10.094;2023-02-23T02:10:39;28.40;;;9.93;;
19127;SDS011;9696;53.686;10.094;2023-02-23T02:13:18;27.90;;;10.27;;
19127;SDS011;9696;53.686;10.094;2023-02-23T02:15:58;28.17;;;10.60;;
19127;SDS011;9696;53.686;10.094;2023-02-23T02:18:52;23.80;;;10.03;;
19127;SDS011;9696;53.686;10.094;2023-02-23T02:21:38;27.73;;;11.73;;
19127;SDS011;9696;53.686;10.094;2023-02-23T02:24:29;32.60;;;11.30;;
19127;SDS011;9696;53.686;10.094;2023-02-23T02:27:23;33.20;;;11.70;;
19127;SDS011;9696;53.686;10.094;2023-02-23T02:30:16;28.47;;;11.50;;
19127;SDS011;9696;53.686;10.094;2023-02-23T02:33:15;25.63;;;11.50;;
19127;SDS011;9696;53.686;10.094;2023-02-23T02:36:09;25.93;;;10.30;;
19127;SDS011;9696;53.686;10.094;2023-02-23T02:38:56;31.67;;;12.03;;
19127;SDS011;9696;53.686;10.094;2023-02-23T02:41:38;30.50;;;12.17;;
19127;SDS011;9696;53.686;10.094;2023-02-23T02:44:18;26.33;;;11.23;;
19127;SDS011;9696;53.686;10.094;2023-02-23T02:46:55;26.13;;;11.97;;
19127;SDS011;9696;53.686;10.094;2023-02-23T02:49:28;22.70;;;10.47;;
19127;SDS011;9696;53.686;10.094;2023-02-23T02:52:05;32.37;;;10.87;;
19127;SDS011;9696;53.686;10.094;2023-02-23T02:54:42;37.10;;;11.17;;
19127;SDS011;9696;53.686;10.094;2023-02-23T02:57:19;27.10;;;11.23;;
19127;SDS011;9696;53.686;10.094;2023-02-23T02:59:52;26.33;;;11.70;;
19127;SDS011;9696;53.686;10.094;2023-02-23T03:02:39;27.40;;;11.63;;
19127;SDS011;9696;53.686;10.094;2023-02-23T03:05:27;25.70;;;11.27;;
19127;SDS011;9696;53.686;10.094;2023-02-23T03:08:19;23.10;;;10.60;;
19127;SDS011;9696;53.686;10.094;2023-02-23T03:11:11;25.07;;;11.47;;
19127;SDS011;9696;53.686;10.094;2023-02-23T03:14:07;28.60;;;10.97;;
19127;SDS011;9696;53.686;10.094;2023-02-23T03:17:03;25.30;;;10.97;;
19127;SDS011;9696;53.686;10.094;2023-02-23T03:19:59;22.50;;;11.07;;
19127;SDS011;9696;53.686;10.094;2023-02-23T03:22:55;24.43;;;11.63;;
19127;SDS011;9696;53.686;10.094;2023-02-23T03:25:50;29.23;;;11.07;;
19127;SDS011;9696;53.686;10.094;2023-02-23T03:28:49;23.03;;;11.17;;
19127;SDS011;9696;53.686;10.094;2023-02-23T03:31:44;19.50;;;10.23;;
19127;SDS011;9696;53.686;10.094;2023-02-23T03:34:36;27.33;;;11.23;;
19127;SDS011;9696;53.686;10.094;2023-02-23T03:37:27;23.60;;;10.43;;
19127;SDS011;9696;53.686;10.094;2023-02-23T03:40:19;25.30;;;10.83;;
19127;SDS011;9696;53.686;10.094;2023-02-23T03:43:19;30.60;;;12.90;;
19127;SDS011;9696;53.686;10.094;2023-02-23T03:46:13;21.47;;;10.10;;
19127;SDS011;9696;53.686;10.094;2023-02-23T03:49:04;28.50;;;11.40;;
19127;SDS011;9696;53.686;10.094;2023-02-23T03:51:56;23.23;;;11.03;;
19127;SDS011;9696;53.686;10.094;2023-02-23T03:54:48;26.43;;;11.10;;
19127;SDS011;9696;53.686;10.094;2023-02-23T03:57:41;22.43;;;10.83;;
19127;SDS011;9696;53.686;10.094;2023-02-23T04:00:32;27.33;;;11.70;;
19127;SDS011;9696;53.686;10.094;2023-02-23T04:03:25;28.83;;;10.97;;
19127;SDS011;9696;53.686;10.094;2023-02-23T04:06:15;25.33;;;11.27;;
19127;SDS011;9696;53.686;10.094;2023-02-23T04:09:06;28.17;;;11.97;;
19127;SDS011;9696;53.686;10.094;2023-02-23T04:11:55;24.80;;;11.40;;
19127;SDS011;9696;53.686;10.094;2023-02-23T04:14:47;23.93;;;11.53;;
19127;SDS011;9696;53.686;10.094;2023-02-23T04:17:22;26.77;;;11.53;;
19127;SDS011;9696;53.686;10.094;2023-02-23T04:20:00;30.87;;;10.60;;
19127;SDS011;9696;53.686;10.094;2023-02-23T04:22:30;36.03;;;11.83;;
19127;SDS011;9696;53.686;10.094;2023-02-23T04:25:01;28.97;;;11.73;;
19127;SDS011;9696;53.686;10.094;2023-02-23T04:27:31;28.67;;;12.17;;
19127;SDS011;9696;53.686;10.094;2023-02-23T04:30:01;24.40;;;11.00;;
19127;SDS011;9696;53.686;10.094;2023-02-23T04:32:30;30.77;;;12.80;;
19127;SDS011;9696;53.686;10.094;2023-02-23T04:35:01;38.97;;;12.23;;
19127;SDS011;9696;53.686;10.094;2023-02-23T04:37:30;32.50;;;12.27;;
19127;SDS011;9696;53.686;10.094;2023-02-23T04:40:00;22.93;;;11.73;;
19127;SDS011;9696;53.686;10.094;2023-02-23T04:42:29;26.40;;;11.27;;
19127;SDS011;9696;53.686;10.094;2023-02-23T04:44:58;23.70;;;11.57;;
19127;SDS011;9696;53.686;10.094;2023-02-23T04:47:27;28.03;;;12.03;;
19127;SDS011;9696;53.686;10.094;2023-02-23T04:49:56;26.43;;;12.30;;
19127;SDS011;9696;53.686;10.094;2023-02-23T04:52:26;25.43;;;12.27;;
19127;SDS011;9696;53.686;10.094;2023-02-23T04:54:55;29.07;;;12.13;;
19127;SDS011;9696;53.686;10.094;2023-02-23T04:57:25;24.30;;;10.80;;
19127;SDS011;9696;53.686;10.094;2023-02-23T04:59:54;21.80;;;11.23;;
19127;SDS011;9696;53.686;10.094;2023-02-23T05:02:24;24.30;;;10.60;;
19127;SDS011;9696;53.686;10.094;2023-02-23T05:04:53;28.23;;;11.03;;
19127;SDS011;9696;53.686;10.094;2023-02-23T05:07:22;34.90;;;11.90;;
19127;SDS011;9696;53.686;10.094;2023-02-23T05:09:53;24.50;;;11.50;;
19127;SDS011;9696;53.686;10.094;2023-02-23T05:12:22;24.77;;;10.93;;
19127;SDS011;9696;53.686;10.094;2023-02-23T05:14:51;25.17;;;10.93;;
19127;SDS011;9696;53.686;10.094;2023-02-23T05:17:20;28.50;;;11.30;;
19127;SDS011;9696;53.686;10.094;2023-02-23T05:19:49;25.13;;;11.57;;
19127;SDS011;9696;53.686;10.094;2023-02-23T05:22:19;27.97;;;11.80;;
19127;SDS011;9696;53.686;10.094;2023-02-23T05:24:48;28.47;;;12.70;;
19127;SDS011;9696;53.686;10.094;2023-02-23T05:27:19;24.73;;;11.77;;
19127;SDS011;9696;53.686;10.094;2023-02-23T05:29:48;36.93;;;12.83;;
19127;SDS011;9696;53.686;10.094;2023-02-23T05:32:17;28.73;;;12.00;;
19127;SDS011;9696;53.686;10.094;2023-02-23T05:34:47;30.53;;;13.07;;
19127;SDS011;9696;53.686;10.094;2023-02-23T05:37:17;30.10;;;12.07;;
19127;SDS011;9696;53.686;10.094;2023-02-23T05:39:46;28.07;;;12.97;;
19127;SDS011;9696;53.686;10.094;2023-02-23T05:42:15;26.10;;;12.23;;
19127;SDS011;9696;53.686;10.094;2023-02-23T05:44:46;28.10;;;12.60;;
19127;SDS011;9696;53.686;10.094;2023-02-23T05:47:15;28.20;;;12.63;;
19127;SDS011;9696;53.686;10.094;2023-02-23T05:49:44;35.13;;;13.60;;
19127;SDS011;9696;53.686;10.094;2023-02-23T05:52:13;30.63;;;13.07;;
19127;SDS011;9696;53.686;10.094;2023-02-23T05:54:42;26.90;;;12.73;;
19127;SDS011;9696;53.686;10.094;2023-02-23T05:57:12;30.73;;;13.40;;
19127;SDS011;9696;53.686;10.094;2023-02-23T05:59:41;33.17;;;13.47;;
19127;SDS011;9696;53.686;10.094;2023-02-23T06:02:12;40.40;;;13.37;;
19127;SDS011;9696;53.686;10.094;2023-02-23T06:04:41;29.40;;;13.00;;
19127;SDS011;9696;53.686;10.094;2023-02-23T06:07:10;30.83;;;13.70;;
19127;SDS011;9696;53.686;10.094;2023-02-23T06:09:40;28.07;;;12.83;;
19127;SDS011;9696;53.686;10.094;2023-02-23T06:12:10;46.30;;;14.37;;
19127;SDS011;9696;53.686;10.094;2023-02-23T06:14:39;47.73;;;18.63;;
19127;SDS011;9696;53.686;10.094;2023-02-23T06:17:08;49.37;;;20.03;;
19127;SDS011;9696;53.686;10.094;2023-02-23T06:19:39;43.90;;;16.97;;
19127;SDS011;9696;53.686;10.094;2023-02-23T06:22:08;35.50;;;14.43;;
19127;SDS011;9696;53.686;10.094;2023-02-23T06:24:37;40.27;;;14.83;;
19127;SDS011;9696;53.686;10.094;2023-02-23T06:27:06;34.97;;;15.17;;
19127;SDS011;9696;53.686;10.094;2023-02-23T06:29:35;35.87;;;13.83;;
19127;SDS011;9696;53.686;10.094;2023-02-23T06:32:04;38.57;;;15.27;;
19127;SDS011;9696;53.686;10.094;2023-02-23T06:34:34;40.10;;;15.73;;
19127;SDS011;9696;53.686;10.094;2023-02-23T06:37:05;37.30;;;15.73;;
19127;SDS011;9696;53.686;10.094;2023-02-23T06:39:35;45.97;;;16.27;;
19127;SDS011;9696;53.686;10.094;2023-02-23T06:42:05;44.33;;;16.23;;
19127;SDS011;9696;53.686;10.094;2023-02-23T06:44:34;44.63;;;17.20;;
19127;SDS011;9696;53.686;10.094;2023-02-23T06:47:03;44.57;;;15.57;;
19127;SDS011;9696;53.686;10.094;2023-02-23T06:49:33;51.47;;;17.80;;
19127;SDS011;9696;53.686;10.094;2023-02-23T06:52:02;48.73;;;16.07;;
19127;SDS011;9696;53.686;10.094;2023-02-23T06:54:33;49.47;;;16.63;;
19127;SDS011;9696;53.686;10.094;2023-02-23T06:57:03;45.10;;;16.23;;
19127;SDS011;9696;53.686;10.094;2023-02-23T06:59:32;52.80;;;17.27;;
19127;SDS011;9696;53.686;10.094;2023-02-23T07:02:02;48.37;;;16.60;;
19127;SDS011;9696;53.686;10.094;2023-02-23T07:04:31;48.53;;;17.30;;
19127;SDS011;9696;53.686;10.094;2023-02-23T07:07:00;42.63;;;16.93;;
19127;SDS011;9696;53.686;10.094;2023-02-23T07:09:30;47.60;;;16.83;;
19127;SDS011;9696;53.686;10.094;2023-02-23T07:12:01;41.23;;;16.00;;
19127;SDS011;9696;53.686;10.094;2023-02-23T07:14:31;43.10;;;17.17;;
19127;SDS011;9696;53.686;10.094;2023-02-23T07:17:00;49.67;;;16.90;;
19127;SDS011;9696;53.686;10.094;2023-02-23T07:19:30;52.37;;;17.37;;
19127;SDS011;9696;53.686;10.094;2023-02-23T07:21:59;49.00;;;17.53;;
19127;SDS011;9696;53.686;10.094;2023-02-23T07:24:28;46.67;;;16.60;;
19127;SDS011;9696;53.686;10.094;2023-02-23T07:26:59;54.87;;;17.30;;
19127;SDS011;9696;53.686;10.094;2023-02-23T07:29:28;48.97;;;16.33;;
19127;SDS011;9696;53.686;10.094;2023-02-23T07:31:57;56.87;;;18.17;;
19127;SDS011;9696;53.686;10.094;2023-02-23T07:34:27;59.37;;;18.33;;
19127;SDS011;9696;53.686;10.094;2023-02-23T07:36:56;58.47;;;18.37;;
19127;SDS011;9696;53.686;10.094;2023-02-23T07:39:25;58.40;;;18.47;;
19127;SDS011;9696;53.686;10.094;2023-02-23T07:41:54;60.77;;;18.37;;
19127;SDS011;9696;53.686;10.094;2023-02-23T07:44:24;51.83;;;17.63;;
19127;SDS011;9696;53.686;10.094;2023-02-23T07:46:53;59.23;;;18.60;;
19127;SDS011;9696;53.686;10.094;2023-02-23T07:49:23;62.37;;;18.47;;
19127;SDS011;9696;53.686;10.094;2023-02-23T07:51:52;70.90;;;20.67;;
19127;SDS011;9696;53.686;10.094;2023-02-23T07:54:21;69.07;;;20.70;;
19127;SDS011;9696;53.686;10.094;2023-02-23T07:56:51;66.53;;;20.07;;
19127;SDS011;9696;53.686;10.094;2023-02-23T07:59:20;70.27;;;19.43;;
19127;SDS011;9696;53.686;10.094;2023-02-23T08:01:50;81.17;;;22.80;;
19127;SDS011;9696;53.686;10.094;2023-02-23T08:04:20;65.57;;;20.30;;
19127;SDS011;9696;53.686;10.094;2023-02-23T08:06:49;76.97;;;21.10;;
19127;SDS011;9696;53.686;10.094;2023-02-23T08:09:18;75.30;;;21.23;;
19127;SDS011;9696;53.686;10.094;2023-02-23T08:11:47;77.30;;;21.67;;
19127;SDS011;9696;53.686;10.094;2023-02-23T08:14:16;72.03;;;21.53;;
19127;SDS011;9696;53.686;10.094;2023-02-23T08:16:50;69.23;;;21.17;;
19127;SDS011;9696;53.686;10.094;2023-02-23T08:19:19;61.67;;;19.60;;
19127;SDS011;9696;53.686;10.094;2023-02-23T08:21:49;63.57;;;18.77;;
19127;SDS011;9696;53.686;10.094;2023-02-23T08:24:19;65.67;;;19.97;;
19127;SDS011;9696;53.686;10.094;2023-02-23T08:26:48;60.20;;;19.30;;
19127;SDS011;9696;53.686;10.094;2023-02-23T08:29:17;66.10;;;19.20;;
19127;SDS011;9696;53.686;10.094;2023-02-23T08:31:47;64.57;;;19.47;;
19127;SDS011;9696;53.686;10.094;2023-02-23T08:34:19;60.83;;;18.17;;
19127;SDS011;9696;53.686;10.094;2023-02-23T08:36:49;52.30;;;16.57;;
19127;SDS011;9696;53.686;10.094;2023-02-23T08:39:20;51.30;;;17.33;;
19127;SDS011;9696;53.686;10.094;2023-02-23T08:41:49;51.70;;;17.03;;
19127;SDS011;9696;53.686;10.094;2023-02-23T08:44:21;47.43;;;15.30;;
19127;SDS011;9696;53.686;10.094;2023-02-23T08:46:50;51.30;;;16.87;;
19127;SDS011;9696;53.686;10.094;2023-02-23T08:49:22;49.30;;;15.77;;
19127;SDS011;9696;53.686;10.094;2023-02-23T08:51:51;51.20;;;16.87;;
19127;SDS011;9696;53.686;10.094;2023-02-23T08:54:21;42.60;;;17.47;;
19127;SDS011;9696;53.686;10.094;2023-02-23T08:56:50;50.93;;;17.80;;
19127;SDS011;9696;53.686;10.094;2023-02-23T08:59:22;48.57;;;16.07;;
19127;SDS011;9696;53.686;10.094;2023-02-23T09:01:51;51.03;;;16.97;;
19127;SDS011;9696;53.686;10.094;2023-02-23T09:04:20;46.90;;;16.70;;
19127;SDS011;9696;53.686;10.094;2023-02-23T09:06:51;38.53;;;14.63;;
19127;SDS011;9696;53.686;10.094;2023-02-23T09:09:20;40.17;;;16.10;;
19127;SDS011;9696;53.686;10.094;2023-02-23T09:11:49;45.37;;;16.33;;
19127;SDS011;9696;53.686;10.094;2023-02-23T09:14:19;45.53;;;17.27;;
19127;SDS011;9696;53.686;10.094;2023-02-23T09:16:48;48.47;;;17.23;;
19127;SDS011;9696;53.686;10.094;2023-02-23T09:19:17;45.43;;;16.07;;
19127;SDS011;9696;53.686;10.094;2023-02-23T09:21:48;51.77;;;18.10;;
19127;SDS011;9696;53.686;10.094;2023-02-23T09:24:18;50.83;;;17.30;;
19127;SDS011;9696;53.686;10.094;2023-02-23T09:26:47;49.90;;;17.17;;
19127;SDS011;9696;53.686;10.094;2023-02-23T09:29:19;50.13;;;18.73;;
19127;SDS011;9696;53.686;10.094;2023-02-23T09:31:48;54.03;;;19.33;;
19127;SDS011;9696;53.686;10.094;2023-02-23T09:34:19;55.77;;;18.50;;
19127;SDS011;9696;53.686;10.094;2023-02-23T09:36:49;59.23;;;20.07;;
19127;SDS011;9696;53.686;10.094;2023-02-23T09:39:21;54.83;;;17.83;;
19127;SDS011;9696;53.686;10.094;2023-02-23T09:47:59;84.73;;;23.63;;
19127;SDS011;9696;53.686;10.094;2023-02-23T09:50:37;97.13;;;24.17;;
19127;SDS011;9696;53.686;10.094;2023-02-23T09:53:12;108.30;;;25.20;;
19127;SDS011;9696;53.686;10.094;2023-02-23T09:55:52;95.47;;;26.20;;
19127;SDS011;9696;53.686;10.094;2023-02-23T09:58:24;89.73;;;23.70;;
19127;SDS011;9696;53.686;10.094;2023-02-23T10:03:49;88.17;;;23.43;;
19127;SDS011;9696;53.686;10.094;2023-02-23T10:06:22;110.77;;;26.73;;
19127;SDS011;9696;53.686;10.094;2023-02-23T10:08:56;94.90;;;23.57;;
19127;SDS011;9696;53.686;10.094;2023-02-23T10:11:36;100.80;;;25.17;;
19127;SDS011;9696;53.686;10.094;2023-02-23T10:14:16;105.40;;;25.03;;
19127;SDS011;9696;53.686;10.094;2023-02-23T10:17:00;80.27;;;24.10;;
19127;SDS011;9696;53.686;10.094;2023-02-23T10:19:43;86.87;;;22.37;;
19127;SDS011;9696;53.686;10.094;2023-02-23T10:22:17;95.83;;;24.37;;
19127;SDS011;9696;53.686;10.094;2023-02-23T10:24:51;95.07;;;23.80;;
19127;SDS011;9696;53.686;10.094;2023-02-23T10:27:25;88.17;;;24.03;;
19127;SDS011;9696;53.686;10.094;2023-02-23T10:30:15;95.50;;;24.50;;
19127;SDS011;9696;53.686;10.094;2023-02-23T10:32:49;97.57;;;23.83;;
19127;SDS011;9696;53.686;10.094;2023-02-23T10:35:23;95.47;;;24.40;;
19127;SDS011;9696;53.686;10.094;2023-02-23T10:37:55;78.77;;;22.37;;
19127;SDS011;9696;53.686;10.094;2023-02-23T10:40:29;86.70;;;22.33;;
19127;SDS011;9696;53.686;10.094;2023-02-23T10:43:00;90.37;;;24.40;;
19127;SDS011;9696;53.686;10.094;2023-02-23T10:45:33;90.60;;;24.87;;
19127;SDS011;9696;53.686;10.094;2023-02-23T10:48:10;82.50;;;22.53;;
19127;SDS011;9696;53.686;10.094;2023-02-23T10:50:44;85.20;;;23.33;;
19127;SDS011;9696;53.686;10.094;2023-02-23T10:53:17;82.93;;;23.60;;
19127;SDS011;9696;53.686;10.094;2023-02-23T10:56:01;92.43;;;23.37;;
19127;SDS011;9696;53.686;10.094;2023-02-23T10:58:38;77.10;;;21.10;;
19127;SDS011;9696;53.686;10.094;2023-02-23T11:01:12;76.13;;;22.03;;
19127;SDS011;9696;53.686;10.094;2023-02-23T11:03:45;82.90;;;22.57;;
19127;SDS011;9696;53.686;10.094;2023-02-23T11:06:31;85.43;;;22.23;;
19127;SDS011;9696;53.686;10.094;2023-02-23T11:09:15;73.07;;;19.13;;
19127;SDS011;9696;53.686;10.094;2023-02-23T11:12:16;71.00;;;19.63;;
19127;SDS011;9696;53.686;10.094;2023-02-23T11:14:49;67.00;;;19.77;;
19127;SDS011;9696;53.686;10.094;2023-02-23T11:17:24;75.90;;;19.30;;
19127;SDS011;9696;53.686;10.094;2023-02-23T11:19:59;71.30;;;18.80;;
19127;SDS011;9696;53.686;10.094;2023-02-23T11:22:31;77.13;;;20.67;;
19127;SDS011;9696;53.686;10.094;2023-02-23T11:25:13;72.93;;;19.13;;
19127;SDS011;9696;53.686;10.094;2023-02-23T11:27:49;79.93;;;22.20;;
19127;SDS011;9696;53.686;10.094;2023-02-23T11:30:20;74.03;;;20.90;;
19127;SDS011;9696;53.686;10.094;2023-02-23T11:32:55;73.50;;;20.87;;
19127;SDS011;9696;53.686;10.094;2023-02-23T11:35:35;64.00;;;19.10;;
19127;SDS011;9696;53.686;10.094;2023-02-23T11:38:14;71.77;;;20.87;;
19127;SDS011;9696;53.686;10.094;2023-02-23T11:40:57;76.50;;;19.77;;
19127;SDS011;9696;53.686;10.094;2023-02-23T11:43:29;66.60;;;19.03;;
19127;SDS011;9696;53.686;10.094;2023-02-23T11:45:58;72.43;;;19.17;;
19127;SDS011;9696;53.686;10.094;2023-02-23T11:48:30;61.77;;;19.87;;
19127;SDS011;9696;53.686;10.094;2023-02-23T11:51:01;72.27;;;19.77;;
19127;SDS011;9696;53.686;10.094;2023-02-23T11:53:31;78.30;;;21.00;;
19127;SDS011;9696;53.686;10.094;2023-02-23T11:56:04;72.30;;;21.83;;
19127;SDS011;9696;53.686;10.094;2023-02-23T11:58:41;70.10;;;19.07;;
19127;SDS011;9696;53.686;10.094;2023-02-23T12:01:14;65.83;;;20.23;;
19127;SDS011;9696;53.686;10.094;2023-02-23T12:03:45;66.07;;;20.77;;
19127;SDS011;9696;53.686;10.094;2023-02-23T12:06:27;62.50;;;19.87;;
19127;SDS011;9696;53.686;10.094;2023-02-23T12:08:59;71.37;;;20.07;;
19127;SDS011;9696;53.686;10.094;2023-02-23T12:11:35;61.13;;;20.13;;
19127;SDS011;9696;53.686;10.094;2023-02-23T12:14:17;68.93;;;19.70;;
19127;SDS011;9696;53.686;10.094;2023-02-23T12:16:54;79.23;;;19.73;;
19127;SDS011;9696;53.686;10.094;2023-02-23T12:19:31;69.67;;;20.20;;
19127;SDS011;9696;53.686;10.094;2023-02-23T12:22:05;73.70;;;20.27;;
19127;SDS011;9696;53.686;10.094;2023-02-23T12:24:41;70.83;;;19.43;;
19127;SDS011;9696;53.686;10.094;2023-02-23T12:27:17;78.13;;;20.40;;
19127;SDS011;9696;53.686;10.094;2023-02-23T12:29:56;77.10;;;20.90;;
19127;SDS011;9696;53.686;10.094;2023-02-23T12:32:38;77.47;;;20.63;;
19127;SDS011;9696;53.686;10.094;2023-02-23T12:35:14;70.17;;;19.60;;
19127;SDS011;9696;53.686;10.094;2023-02-23T12:37:47;60.03;;;17.10;;
19127;SDS011;9696;53.686;10.094;2023-02-23T12:40:21;72.13;;;19.33;;
19127;SDS011;9696;53.686;10.094;2023-02-23T12:42:56;74.37;;;20.40;;
19127;SDS011;9696;53.686;10.094;2023-02-23T12:45:32;65.63;;;19.37;;
19127;SDS011;9696;53.686;10.094;2023-02-23T12:48:11;62.30;;;17.97;;
19127;SDS011;9696;53.686;10.094;2023-02-23T12:50:49;71.13;;;18.17;;
19127;SDS011;9696;53.686;10.094;2023-02-23T12:53:20;74.03;;;19.93;;
19127;SDS011;9696;53.686;10.094;2023-02-23T12:58:49;59.60;;;17.27;;
19127;SDS011;9696;53.686;10.094;2023-02-23T13:01:27;66.27;;;17.97;;
19127;SDS011;9696;53.686;10.094;2023-02-23T13:04:03;63.67;;;17.27;;
19127;SDS011;9696;53.686;10.094;2023-02-23T13:06:53;61.80;;;15.83;;
19127;SDS011;9696;53.686;10.094;2023-02-23T13:09:35;57.40;;;16.73;;
19127;SDS011;9696;53.686;10.094;2023-02-23T13:12:33;57.60;;;16.97;;
19127;SDS011;9696;53.686;10.094;2023-02-23T13:15:18;52.73;;;15.67;;
19127;SDS011;9696;53.686;10.094;2023-02-23T13:17:55;56.87;;;16.17;;
19127;SDS011;9696;53.686;10.094;2023-02-23T13:20:31;60.20;;;16.23;;
19127;SDS011;9696;53.686;10.094;2023-02-23T13:23:07;57.60;;;16.47;;
19127;SDS011;9696;53.686;10.094;2023-02-23T13:25:46;63.13;;;17.17;;
19127;SDS011;9696;53.686;10.094;2023-02-23T13:28:31;56.80;;;16.80;;
19127;SDS011;9696;53.686;10.094;2023-02-23T13:31:12;55.03;;;16.67;;
19127;SDS011;9696;53.686;10.094;2023-02-23T13:33:51;52.63;;;16.13;;
19127;SDS011;9696;53.686;10.094;2023-02-23T13:36:22;43.07;;;14.57;;
19127;SDS011;9696;53.686;10.094;2023-02-23T13:39:04;46.17;;;14.37;;
19127;SDS011;9696;53.686;10.094;2023-02-23T13:45:11;47.60;;;14.63;;
19127;SDS011;9696;53.686;10.094;2023-02-23T13:47:52;45.43;;;15.23;;
19127;SDS011;9696;53.686;10.094;2023-02-23T13:50:26;42.53;;;13.80;;
19127;SDS011;9696;53.686;10.094;2023-02-23T13:53:04;43.57;;;13.57;;
19127;SDS011;9696;53.686;10.094;2023-02-23T13:55:36;43.97;;;14.13;;
19127;SDS011;9696;53.686;10.094;2023-02-23T13:58:16;43.40;;;13.90;;
19127;SDS011;9696;53.686;10.094;2023-02-23T14:00:52;52.10;;;13.83;;
19127;SDS011;9696;53.686;10.094;2023-02-23T14:03:32;44.17;;;13.53;;
19127;SDS011;9696;53.686;10.094;2023-02-23T14:06:15;44.83;;;12.57;;
19127;SDS011;9696;53.686;10.094;2023-02-23T14:08:50;40.87;;;13.00;;
19127;SDS011;9696;53.686;10.094;2023-02-23T14:11:33;44.47;;;13.30;;
19127;SDS011;9696;53.686;10.094;2023-02-23T14:14:10;46.77;;;13.67;;
19127;SDS011;9696;53.686;10.094;2023-02-23T14:20:16;39.47;;;12.77;;
19127;SDS011;9696;53.686;10.094;2023-02-23T14:26:34;38.67;;;12.10;;
19127;SDS011;9696;53.686;10.094;2023-02-23T14:29:25;37.73;;;12.73;;
19127;SDS011;9696;53.686;10.094;2023-02-23T14:31:58;41.53;;;12.33;;
19127;SDS011;9696;53.686;10.094;2023-02-23T14:34:43;43.40;;;12.73;;
19127;SDS011;9696;53.686;10.094;2023-02-23T14:37:24;32.37;;;10.83;;
19127;SDS011;9696;53.686;10.094;2023-02-23T14:40:09;43.47;;;12.13;;
19127;SDS011;9696;53.686;10.094;2023-02-23T14:42:43;39.63;;;10.77;;
19127;SDS011;9696;53.686;10.094;2023-02-23T14:45:17;38.40;;;10.47;;
19127;SDS011;9696;53.686;10.094;2023-02-23T14:47:54;37.43;;;10.50;;
19127;SDS011;9696;53.686;10.094;2023-02-23T14:50:26;40.70;;;10.47;;
19127;SDS011;9696;53.686;10.094;2023-02-23T14:52:57;36.67;;;9.97;;
19127;SDS011;9696;53.686;10.094;2023-02-23T14:55:29;28.93;;;8.97;;
19127;SDS011;9696;53.686;10.094;2023-02-23T14:58:01;31.97;;;10.83;;
19127;SDS011;9696;53.686;10.094;2023-02-23T15:00:31;24.37;;;8.97;;
19127;SDS011;9696;53.686;10.094;2023-02-23T15:03:09;28.70;;;8.93;;
19127;SDS011;9696;53.686;10.094;2023-02-23T15:05:40;28.50;;;8.57;;
19127;SDS011;9696;53.686;10.094;2023-02-23T15:08:12;27.53;;;9.10;;
19127;SDS011;9696;53.686;10.094;2023-02-23T15:10:45;30.60;;;9.47;;
19127;SDS011;9696;53.686;10.094;2023-02-23T15:13:19;35.37;;;11.50;;
19127;SDS011;9696;53.686;10.094;2023-02-23T15:15:55;31.83;;;9.20;;
19127;SDS011;9696;53.686;10.094;2023-02-23T15:18:29;29.47;;;8.17;;
19127;SDS011;9696;53.686;10.094;2023-02-23T15:21:03;30.90;;;9.03;;
19127;SDS011;9696;53.686;10.094;2023-02-23T15:23:36;27.13;;;9.33;;
19127;SDS011;9696;53.686;10.094;2023-02-23T15:26:15;28.07;;;9.23;;
19127;SDS011;9696;53.686;10.094;2023-02-23T15:28:50;28.30;;;8.30;;
19127;SDS011;9696;53.686;10.094;2023-02-23T15:31:19;23.10;;;8.17;;
19127;SDS011;9696;53.686;10.094;2023-02-23T15:33:49;29.37;;;10.63;;